createdAt,value
2018-08-27T00:00:40.342Z,16.35
2018-08-27T00:01:40.024Z,16.32
2018-08-27T00:02:39.997Z,16.29
2018-08-27T00:03:40.025Z,16.28
2018-08-27T00:04:40.125Z,16.29
2018-08-27T00:05:40.220Z,16.29
2018-08-27T00:06:40.005Z,16.31
2018-08-27T00:07:40.297Z,16.31
2018-08-27T00:08:40.255Z,16.28
2018-08-27T00:09:40.100Z,16.26
2018-08-27T00:10:40.180Z,16.26
2018-08-27T00:11:40.016Z,16.24
2018-08-27T00:12:40.050Z,16.26
2018-08-27T00:13:40.030Z,16.26
2018-08-27T00:14:40.035Z,16.25
2018-08-27T00:15:40.090Z,16.22
2018-08-27T00:16:40.052Z,16.22
2018-08-27T00:17:40.266Z,16.25
2018-08-27T00:18:40.062Z,16.24
2018-08-27T00:19:40.034Z,16.22
2018-08-27T00:20:40.043Z,16.24
2018-08-27T00:21:40.141Z,16.22
2018-08-27T00:22:40.119Z,16.22
2018-08-27T00:23:40.054Z,16.22
2018-08-27T00:24:40.028Z,16.24
2018-08-27T00:25:40.051Z,16.18
2018-08-27T00:26:40.069Z,16.14
2018-08-27T00:27:40.109Z,16.14
2018-08-27T00:28:40.051Z,16.11
2018-08-27T00:29:40.194Z,16.08
2018-08-27T00:30:40.042Z,16.07
2018-08-27T00:31:40.123Z,16.07
2018-08-27T00:32:40.076Z,16.02
2018-08-27T00:33:40.405Z,15.97
2018-08-27T00:34:40.099Z,15.97
2018-08-27T00:35:40.182Z,15.95
2018-08-27T00:36:40.036Z,15.91
2018-08-27T00:37:40.275Z,15.92
2018-08-27T00:38:40.118Z,15.95
2018-08-27T00:39:40.085Z,15.95
2018-08-27T00:40:40.169Z,15.92
2018-08-27T00:41:40.051Z,15.92
2018-08-27T00:42:40.215Z,15.94
2018-08-27T00:43:40.094Z,15.94
2018-08-27T00:44:40.062Z,15.94
2018-08-27T00:45:40.072Z,15.94
2018-08-27T00:46:40.715Z,15.94
2018-08-27T00:47:40.121Z,15.92
2018-08-27T00:48:40.073Z,15.9
2018-08-27T00:49:40.140Z,15.84
2018-08-27T00:50:40.131Z,15.82
2018-08-27T00:51:40.076Z,15.84
2018-08-27T00:52:40.136Z,15.84
2018-08-27T00:53:40.216Z,15.84
2018-08-27T00:54:40.345Z,15.87
2018-08-27T00:55:40.138Z,15.87
2018-08-27T00:56:40.062Z,15.88
2018-08-27T00:57:40.134Z,15.87
2018-08-27T00:58:40.085Z,15.9
2018-08-27T00:59:40.091Z,15.9
2018-08-27T01:00:40.270Z,15.9
2018-08-27T01:01:40.079Z,15.81
2018-08-27T01:02:40.088Z,15.85
2018-08-27T01:03:40.061Z,15.85
2018-08-27T01:04:40.088Z,15.87
2018-08-27T01:05:40.071Z,15.84
2018-08-27T01:06:40.060Z,15.87
2018-08-27T01:07:40.092Z,15.84
2018-08-27T01:08:40.125Z,15.84
2018-08-27T01:09:40.095Z,15.85
2018-08-27T01:10:40.100Z,15.87
2018-08-27T01:11:40.078Z,15.9
2018-08-27T01:12:40.070Z,15.88
2018-08-27T01:13:40.073Z,15.85
2018-08-27T01:14:40.107Z,15.88
2018-08-27T01:15:40.105Z,15.88
2018-08-27T01:16:40.096Z,15.91
2018-08-27T01:17:40.128Z,15.92
2018-08-27T01:18:40.108Z,15.97
2018-08-27T01:19:40.135Z,15.99
2018-08-27T01:20:40.275Z,15.98
2018-08-27T01:21:40.125Z,15.97
2018-08-27T01:22:40.779Z,15.98
2018-08-27T01:23:40.130Z,15.95
2018-08-27T01:24:40.244Z,15.98
2018-08-27T01:25:40.291Z,15.97
2018-08-27T01:26:40.114Z,15.98
2018-08-27T01:27:40.096Z,16.01
2018-08-27T01:28:40.126Z,16.01
2018-08-27T01:29:40.185Z,15.97
2018-08-27T01:30:40.117Z,16.01
2018-08-27T01:31:40.126Z,15.99
2018-08-27T01:32:40.318Z,16.01
2018-08-27T01:33:40.444Z,15.99
2018-08-27T01:34:40.270Z,16.01
2018-08-27T01:35:40.107Z,15.99
2018-08-27T01:36:40.428Z,16.02
2018-08-27T01:37:40.111Z,16.02
2018-08-27T01:38:40.133Z,16.05
2018-08-27T01:39:40.189Z,15.99
2018-08-27T01:40:40.176Z,15.99
2018-08-27T01:41:40.248Z,16.01
2018-08-27T01:42:40.157Z,16.04
2018-08-27T01:43:40.130Z,16.05
2018-08-27T01:44:40.158Z,16.05
2018-08-27T01:45:40.399Z,16.04
2018-08-27T01:46:40.316Z,16.07
2018-08-27T01:47:40.269Z,16.08
2018-08-27T01:48:40.376Z,16.07
2018-08-27T01:49:40.170Z,16.05
2018-08-27T01:50:40.158Z,16.01
2018-08-27T01:51:40.143Z,15.99
2018-08-27T01:52:40.235Z,16.01
2018-08-27T01:53:40.127Z,16.01
2018-08-27T01:54:40.151Z,15.99
2018-08-27T01:55:40.399Z,16.01
2018-08-27T01:56:40.470Z,16.02
2018-08-27T01:57:40.124Z,16.02
2018-08-27T01:58:40.230Z,16.04
2018-08-27T01:59:40.288Z,16.01
2018-08-27T02:00:40.135Z,16.02
2018-08-27T02:01:40.165Z,15.99
2018-08-27T02:02:40.137Z,16.01
2018-08-27T02:03:40.481Z,16.02
2018-08-27T02:04:40.241Z,16.01
2018-08-27T02:05:40.396Z,16.02
2018-08-27T02:06:40.182Z,16.02
2018-08-27T02:07:40.205Z,15.98
2018-08-27T02:08:40.263Z,15.97
2018-08-27T02:09:40.325Z,15.97
2018-08-27T02:10:40.260Z,15.98
2018-08-27T02:11:40.159Z,15.95
2018-08-27T02:12:40.278Z,15.95
2018-08-27T02:13:40.214Z,15.97
2018-08-27T02:14:40.217Z,15.97
2018-08-27T02:15:40.187Z,15.99
2018-08-27T02:16:40.176Z,15.99
2018-08-27T02:17:40.186Z,15.98
2018-08-27T02:18:40.176Z,15.97
2018-08-27T02:19:40.168Z,15.95
2018-08-27T02:20:40.228Z,15.95
2018-08-27T02:21:40.219Z,15.97
2018-08-27T02:22:40.207Z,15.97
2018-08-27T02:23:40.153Z,15.95
2018-08-27T02:24:40.203Z,15.95
2018-08-27T02:25:40.176Z,15.92
2018-08-27T02:26:40.182Z,15.94
2018-08-27T02:27:40.179Z,15.91
2018-08-27T02:28:40.244Z,15.91
2018-08-27T02:29:40.540Z,15.92
2018-08-27T02:30:40.210Z,15.91
2018-08-27T02:31:40.207Z,15.92
2018-08-27T02:32:40.196Z,15.92
2018-08-27T02:33:40.549Z,15.94
2018-08-27T02:34:40.211Z,15.94
2018-08-27T02:35:40.201Z,15.9
2018-08-27T02:36:40.298Z,15.9
2018-08-27T02:37:40.288Z,15.88
2018-08-27T02:38:40.177Z,15.9
2018-08-27T02:39:40.660Z,15.92
2018-08-27T02:40:40.252Z,15.91
2018-08-27T02:41:40.220Z,15.91
2018-08-27T02:42:40.336Z,15.94
2018-08-27T02:43:40.195Z,15.91
2018-08-27T02:44:40.310Z,15.94
2018-08-27T02:45:40.315Z,15.94
2018-08-27T02:46:40.249Z,15.9
2018-08-27T02:47:40.379Z,15.88
2018-08-27T02:48:40.291Z,15.9
2018-08-27T02:49:40.513Z,15.88
2018-08-27T02:50:40.380Z,15.92
2018-08-27T02:51:40.247Z,15.88
2018-08-27T02:52:40.239Z,15.9
2018-08-27T02:53:40.288Z,15.87
2018-08-27T02:54:40.220Z,15.87
2018-08-27T02:55:40.415Z,15.9
2018-08-27T02:56:40.283Z,15.88
2018-08-27T02:57:40.194Z,15.9
2018-08-27T02:58:40.278Z,15.9
2018-08-27T02:59:40.555Z,15.88
2018-08-27T03:00:40.386Z,15.91
2018-08-27T03:01:40.269Z,15.91
2018-08-27T03:02:40.403Z,15.94
2018-08-27T03:03:40.238Z,15.92
2018-08-27T03:04:40.433Z,15.94
2018-08-27T03:05:40.246Z,15.97
2018-08-27T03:06:40.238Z,15.94
2018-08-27T03:07:40.360Z,15.94
2018-08-27T03:08:40.355Z,15.88
2018-08-27T03:09:40.413Z,15.91
2018-08-27T03:10:40.533Z,15.87
2018-08-27T03:11:40.333Z,15.85
2018-08-27T03:12:40.286Z,15.87
2018-08-27T03:13:40.239Z,15.87
2018-08-27T03:14:40.249Z,15.87
2018-08-27T03:15:40.356Z,15.88
2018-08-27T03:16:40.406Z,15.87
2018-08-27T03:17:40.321Z,15.84
2018-08-27T03:18:40.230Z,15.84
2018-08-27T03:19:40.557Z,15.85
2018-08-27T03:20:40.440Z,15.85
2018-08-27T03:21:40.235Z,15.84
2018-08-27T03:22:40.259Z,15.84
2018-08-27T03:23:40.287Z,15.82
2018-08-27T03:24:40.270Z,15.84
2018-08-27T03:25:40.239Z,15.85
2018-08-27T03:26:40.256Z,15.85
2018-08-27T03:27:40.289Z,15.85
2018-08-27T03:28:40.239Z,15.84
2018-08-27T03:29:40.256Z,15.87
2018-08-27T03:30:40.283Z,15.85
2018-08-27T03:31:40.272Z,15.88
2018-08-27T03:32:40.257Z,15.9
2018-08-27T03:33:40.271Z,15.88
2018-08-27T03:34:40.272Z,15.87
2018-08-27T03:35:40.240Z,15.9
2018-08-27T03:36:40.267Z,15.88
2018-08-27T03:37:40.258Z,15.91
2018-08-27T03:38:40.266Z,15.88
2018-08-27T03:39:40.258Z,15.9
2018-08-27T03:40:40.470Z,15.88
2018-08-27T03:41:40.314Z,15.88
2018-08-27T03:42:40.277Z,15.88
2018-08-27T03:43:40.275Z,15.9
2018-08-27T03:44:40.275Z,15.88
2018-08-27T03:45:40.258Z,15.9
2018-08-27T03:46:40.263Z,15.9
2018-08-27T03:47:40.285Z,15.91
2018-08-27T03:48:40.892Z,15.9
2018-08-27T03:49:40.582Z,15.92
2018-08-27T03:50:40.288Z,15.92
2018-08-27T03:51:40.352Z,15.91
2018-08-27T03:52:40.272Z,15.92
2018-08-27T03:53:40.464Z,15.92
2018-08-27T03:54:40.437Z,15.92
2018-08-27T03:55:40.280Z,15.92
2018-08-27T03:56:40.314Z,15.94
2018-08-27T03:57:40.425Z,15.92
2018-08-27T03:58:40.280Z,15.94
2018-08-27T03:59:40.342Z,15.97
2018-08-27T04:00:40.374Z,15.94
2018-08-27T04:01:40.289Z,15.94
2018-08-27T04:02:40.331Z,15.97
2018-08-27T04:03:40.793Z,15.95
2018-08-27T04:04:40.440Z,15.95
2018-08-27T04:05:40.451Z,15.95
2018-08-27T04:06:40.310Z,15.94
2018-08-27T04:07:40.836Z,15.94
2018-08-27T04:08:40.319Z,15.95
2018-08-27T04:09:40.493Z,15.95
2018-08-27T04:10:40.320Z,15.92
2018-08-27T04:11:40.300Z,15.94
2018-08-27T04:12:40.460Z,15.92
2018-08-27T04:13:40.304Z,15.94
2018-08-27T04:14:40.303Z,15.94
2018-08-27T04:15:40.573Z,15.91
2018-08-27T04:16:40.452Z,15.94
2018-08-27T04:17:40.293Z,15.95
2018-08-27T04:18:40.308Z,15.94
2018-08-27T04:19:40.533Z,15.94
2018-08-27T04:20:40.649Z,15.94
2018-08-27T04:21:40.368Z,15.95
2018-08-27T04:22:40.388Z,15.95
2018-08-27T04:23:40.307Z,15.95
2018-08-27T04:24:40.305Z,15.94
2018-08-27T04:25:40.330Z,15.95
2018-08-27T04:26:40.307Z,15.95
2018-08-27T04:27:40.305Z,15.98
2018-08-27T04:28:40.421Z,15.97
2018-08-27T04:29:40.646Z,15.95
2018-08-27T04:30:41.130Z,15.97
2018-08-27T04:31:40.366Z,15.97
2018-08-27T04:32:40.471Z,15.95
2018-08-27T04:33:40.349Z,15.97
2018-08-27T04:34:40.471Z,15.97
2018-08-27T04:35:40.465Z,15.95
2018-08-27T04:36:40.549Z,15.91
2018-08-27T04:37:40.410Z,15.91
2018-08-27T04:38:40.362Z,15.92
2018-08-27T04:39:40.450Z,15.9
2018-08-27T04:40:40.333Z,15.87
2018-08-27T04:41:40.789Z,15.88
2018-08-27T04:42:41.246Z,15.88
2018-08-27T04:43:40.363Z,15.91
2018-08-27T04:44:40.476Z,15.92
2018-08-27T04:45:40.348Z,15.92
2018-08-27T04:46:40.443Z,15.92
2018-08-27T04:47:40.429Z,15.94
2018-08-27T04:48:40.373Z,15.94
2018-08-27T04:49:40.902Z,15.95
2018-08-27T04:50:40.364Z,15.95
2018-08-27T04:51:40.350Z,15.95
2018-08-27T04:52:40.363Z,15.95
2018-08-27T04:53:40.350Z,15.97
2018-08-27T04:54:40.520Z,15.98
2018-08-27T04:55:40.365Z,15.97
2018-08-27T04:56:40.387Z,15.95
2018-08-27T04:57:40.555Z,15.94
2018-08-27T04:58:40.607Z,15.94
2018-08-27T04:59:40.434Z,15.94
2018-08-27T05:00:40.384Z,15.92
2018-08-27T05:01:40.383Z,15.95
2018-08-27T05:02:40.372Z,15.94
2018-08-27T05:03:40.391Z,15.95
2018-08-27T05:04:40.427Z,15.97
2018-08-27T05:05:40.371Z,15.95
2018-08-27T05:06:40.416Z,15.97
2018-08-27T05:07:40.405Z,15.97
2018-08-27T05:08:40.476Z,15.98
2018-08-27T05:09:40.364Z,15.99
2018-08-27T05:10:40.349Z,15.98
2018-08-27T05:11:40.390Z,15.98
2018-08-27T05:12:40.618Z,15.98
2018-08-27T05:13:40.389Z,15.98
2018-08-27T05:14:40.425Z,16.01
2018-08-27T05:15:40.580Z,16.04
2018-08-27T05:16:40.483Z,16.04
2018-08-27T05:17:42.058Z,16.04
2018-08-27T05:18:40.536Z,16.04
2018-08-27T05:19:40.705Z,16.07
2018-08-27T05:20:40.622Z,16.05
2018-08-27T05:21:40.359Z,16.05
2018-08-27T05:22:40.402Z,16.08
2018-08-27T05:23:40.952Z,16.08
2018-08-27T05:24:40.435Z,16.08
2018-08-27T05:25:40.705Z,16.04
2018-08-27T05:26:40.556Z,16.05
2018-08-27T05:27:40.453Z,16.08
2018-08-27T05:28:40.461Z,16.09
2018-08-27T05:29:40.768Z,16.14
2018-08-27T05:30:41.092Z,16.12
2018-08-27T05:31:40.456Z,16.11
2018-08-27T05:32:40.469Z,16.11
2018-08-27T05:33:40.437Z,16.14
2018-08-27T05:34:40.799Z,16.15
2018-08-27T05:35:40.609Z,16.12
2018-08-27T05:36:40.877Z,16.16
2018-08-27T05:37:40.495Z,16.16
2018-08-27T05:38:41.031Z,16.21
2018-08-27T05:39:40.433Z,16.16
2018-08-27T05:40:40.570Z,16.16
2018-08-27T05:41:40.445Z,16.18
2018-08-27T05:42:40.410Z,16.21
2018-08-27T05:43:40.468Z,16.21
2018-08-27T05:44:41.020Z,16.21
2018-08-27T05:45:40.467Z,16.25
2018-08-27T05:46:40.602Z,16.26
2018-08-27T05:47:40.625Z,16.22
2018-08-27T05:48:40.412Z,16.22
2018-08-27T05:49:40.458Z,16.29
2018-08-27T05:50:40.537Z,16.28
2018-08-27T05:51:40.430Z,16.29
2018-08-27T05:52:40.732Z,16.32
2018-08-27T05:53:40.515Z,16.32
2018-08-27T05:54:40.894Z,16.35
2018-08-27T05:55:40.956Z,16.37
2018-08-27T05:56:40.467Z,16.36
2018-08-27T05:57:40.766Z,16.37
2018-08-27T05:58:40.627Z,16.37
2018-08-27T05:59:40.444Z,16.39
2018-08-27T06:00:40.583Z,16.42
2018-08-27T06:01:40.969Z,16.4
2018-08-27T06:02:40.444Z,16.45
2018-08-27T06:03:40.497Z,16.46
2018-08-27T06:04:41.334Z,16.47
2018-08-27T06:05:40.869Z,16.47
2018-08-27T06:06:40.513Z,16.5
2018-08-27T06:07:40.455Z,16.46
2018-08-27T06:08:40.519Z,16.5
2018-08-27T06:09:40.570Z,16.47
2018-08-27T06:10:40.850Z,16.47
2018-08-27T06:11:40.624Z,16.49
2018-08-27T06:12:40.506Z,16.49
2018-08-27T06:13:40.474Z,16.46
2018-08-27T06:14:40.460Z,16.5
2018-08-27T06:15:41.526Z,16.52
2018-08-27T06:16:40.778Z,16.52
2018-08-27T06:17:40.639Z,16.54
2018-08-27T06:18:40.464Z,16.56
2018-08-27T06:19:40.506Z,16.6
2018-08-27T06:20:40.547Z,16.62
2018-08-27T06:21:40.483Z,16.59
2018-08-27T06:22:40.470Z,16.63
2018-08-27T06:23:40.460Z,16.62
2018-08-27T06:24:40.434Z,16.63
2018-08-27T06:25:41.300Z,16.62
2018-08-27T06:26:40.445Z,16.63
2018-08-27T06:27:40.781Z,16.66
2018-08-27T06:28:40.602Z,16.64
2018-08-27T06:29:40.612Z,16.63
2018-08-27T06:30:40.501Z,16.66
2018-08-27T06:31:40.452Z,16.67
2018-08-27T06:32:40.467Z,16.64
2018-08-27T06:33:40.516Z,16.66
2018-08-27T06:34:40.469Z,16.68
2018-08-27T06:35:40.827Z,16.7
2018-08-27T06:36:40.470Z,16.7
2018-08-27T06:37:40.735Z,16.71
2018-08-27T06:38:40.485Z,16.73
2018-08-27T06:39:41.020Z,16.73
2018-08-27T06:40:40.546Z,16.71
2018-08-27T06:41:40.779Z,16.75
2018-08-27T06:42:40.527Z,16.78
2018-08-27T06:43:40.803Z,16.74
2018-08-27T06:44:40.529Z,16.73
2018-08-27T06:45:40.512Z,16.74
2018-08-27T06:46:40.504Z,16.74
2018-08-27T06:47:40.635Z,16.74
2018-08-27T06:48:40.518Z,16.73
2018-08-27T06:49:41.040Z,16.75
2018-08-27T06:50:40.543Z,16.75
2018-08-27T06:51:40.526Z,16.77
2018-08-27T06:52:40.938Z,16.8
2018-08-27T06:53:40.489Z,16.81
2018-08-27T06:54:40.599Z,16.81
2018-08-27T06:55:40.487Z,16.83
2018-08-27T06:56:40.857Z,16.84
2018-08-27T06:57:40.556Z,16.81
2018-08-27T06:58:40.879Z,16.67
2018-08-27T06:59:40.510Z,16.63
2018-08-27T07:00:40.819Z,16.67
2018-08-27T07:01:40.513Z,16.68
2018-08-27T07:02:40.697Z,16.73
2018-08-27T07:03:41.097Z,16.77
2018-08-27T07:04:40.681Z,16.71
2018-08-27T07:05:40.522Z,16.71
2018-08-27T07:06:41.342Z,16.57
2018-08-27T07:07:40.807Z,16.63
2018-08-27T07:08:40.546Z,16.64
2018-08-27T07:09:40.991Z,16.68
2018-08-27T07:10:40.509Z,16.67
2018-08-27T07:11:40.837Z,16.7
2018-08-27T07:12:40.542Z,16.73
2018-08-27T07:13:40.539Z,16.73
2018-08-27T07:14:41.034Z,16.77
2018-08-27T07:15:40.724Z,16.77
2018-08-27T07:16:40.663Z,16.8
2018-08-27T07:17:40.591Z,16.81
2018-08-27T07:18:40.526Z,16.81
2018-08-27T07:19:40.776Z,16.83
2018-08-27T07:20:40.512Z,16.81
2018-08-27T07:21:40.625Z,16.84
2018-08-27T07:22:40.640Z,16.84
2018-08-27T07:23:40.881Z,16.83
2018-08-27T07:24:40.512Z,16.87
2018-08-27T07:25:40.519Z,16.84
2018-08-27T07:26:40.561Z,16.86
2018-08-27T07:27:40.584Z,16.84
2018-08-27T07:28:40.733Z,16.86
2018-08-27T07:29:40.532Z,16.88
2018-08-27T07:30:40.833Z,16.9
2018-08-27T07:31:40.589Z,16.88
2018-08-27T07:32:40.831Z,16.92
2018-08-27T07:33:40.543Z,16.91
2018-08-27T07:34:40.931Z,16.95
2018-08-27T07:35:41.004Z,16.95
2018-08-27T07:36:41.231Z,16.94
2018-08-27T07:37:40.530Z,16.97
2018-08-27T07:38:40.537Z,16.95
2018-08-27T07:39:40.554Z,16.95
2018-08-27T07:40:40.561Z,16.98
2018-08-27T07:41:40.553Z,16.97
2018-08-27T07:42:40.720Z,16.94
2018-08-27T07:43:41.772Z,16.97
2018-08-27T07:44:40.594Z,16.97
2018-08-27T07:45:40.738Z,16.98
2018-08-27T07:46:40.623Z,16.95
2018-08-27T07:47:41.863Z,16.95
2018-08-27T07:48:41.185Z,16.94
2018-08-27T07:49:40.516Z,16.94
2018-08-27T07:50:40.849Z,16.95
2018-08-27T07:51:40.941Z,16.97
2018-08-27T07:52:40.843Z,16.97
2018-08-27T07:53:40.560Z,16.99
2018-08-27T07:54:40.585Z,17.02
2018-08-27T07:55:40.624Z,17.04
2018-08-27T07:56:40.696Z,17.05
2018-08-27T07:57:40.560Z,17.08
2018-08-27T07:58:40.889Z,17.09
2018-08-27T07:59:40.718Z,17.14
2018-08-27T08:00:40.526Z,17.16
2018-08-27T08:01:40.605Z,17.16
2018-08-27T08:02:40.930Z,17.18
2018-08-27T08:03:40.647Z,17.18
2018-08-27T08:04:41.283Z,17.21
2018-08-27T08:05:40.558Z,17.22
2018-08-27T08:06:40.711Z,17.29
2018-08-27T08:07:40.613Z,17.29
2018-08-27T08:08:40.573Z,17.33
2018-08-27T08:09:40.752Z,17.35
2018-08-27T08:10:40.590Z,17.36
2018-08-27T08:11:41.370Z,17.42
2018-08-27T08:12:40.573Z,17.43
2018-08-27T08:13:40.792Z,17.47
2018-08-27T08:14:41.093Z,17.52
2018-08-27T08:15:40.595Z,17.5
2018-08-27T08:16:40.653Z,17.54
2018-08-27T08:17:40.622Z,17.57
2018-08-27T08:18:40.744Z,17.6
2018-08-27T08:19:40.562Z,17.58
2018-08-27T08:20:40.747Z,17.6
2018-08-27T08:21:40.753Z,17.63
2018-08-27T08:22:40.784Z,17.61
2018-08-27T08:23:40.758Z,17.64
2018-08-27T08:24:40.568Z,17.63
2018-08-27T08:25:41.925Z,17.64
2018-08-27T08:26:40.646Z,17.66
2018-08-27T08:27:41.706Z,17.69
2018-08-27T08:28:41.014Z,17.69
2018-08-27T08:29:41.002Z,17.69
2018-08-27T08:30:41.150Z,17.63
2018-08-27T08:31:40.608Z,17.61
2018-08-27T08:32:40.751Z,17.61
2018-08-27T08:33:40.602Z,17.63
2018-08-27T08:34:40.728Z,17.57
2018-08-27T08:35:40.673Z,17.63
2018-08-27T08:36:41.415Z,17.67
2018-08-27T08:37:40.634Z,17.7
2018-08-27T08:38:40.648Z,17.74
2018-08-27T08:39:40.716Z,17.77
2018-08-27T08:40:41.239Z,17.8
2018-08-27T08:41:40.630Z,17.81
2018-08-27T08:42:40.618Z,17.81
2018-08-27T08:43:40.857Z,17.84
2018-08-27T08:44:40.941Z,17.85
2018-08-27T08:45:41.310Z,17.88
2018-08-27T08:46:40.858Z,17.89
2018-08-27T08:47:40.680Z,17.89
2018-08-27T08:48:40.625Z,17.89
2018-08-27T08:49:40.744Z,17.91
2018-08-27T08:50:40.703Z,17.92
2018-08-27T08:51:40.761Z,17.92
2018-08-27T08:52:40.939Z,17.94
2018-08-27T08:53:40.958Z,17.95
2018-08-27T08:54:40.613Z,18.01
2018-08-27T08:55:40.653Z,18.02
2018-08-27T08:56:40.788Z,18.08
2018-08-27T08:57:40.770Z,18.06
2018-08-27T08:58:40.640Z,18.08
2018-08-27T08:59:40.615Z,18.12
2018-08-27T09:00:40.938Z,18.12
2018-08-27T09:01:40.874Z,18.13
2018-08-27T09:02:41.248Z,18.13
2018-08-27T09:03:40.771Z,18.16
2018-08-27T09:04:40.824Z,18.13
2018-08-27T09:05:42.273Z,18.17
2018-08-27T09:06:40.725Z,18.19
2018-08-27T09:07:40.844Z,18.25
2018-08-27T09:08:41.254Z,18.22
2018-08-27T09:09:40.812Z,18.26
2018-08-27T09:10:41.515Z,18.25
2018-08-27T09:11:40.643Z,18.27
2018-08-27T09:12:40.632Z,18.3
2018-08-27T09:13:40.637Z,18.29
2018-08-27T09:14:40.642Z,18.29
2018-08-27T09:15:40.715Z,18.3
2018-08-27T09:16:40.893Z,18.29
2018-08-27T09:17:41.263Z,18.32
2018-08-27T09:18:40.663Z,18.33
2018-08-27T09:19:40.682Z,18.35
2018-08-27T09:20:40.790Z,18.37
2018-08-27T09:21:40.729Z,18.37
2018-08-27T09:22:40.845Z,18.39
2018-08-27T09:23:41.090Z,18.36
2018-08-27T09:24:41.480Z,18.37
2018-08-27T09:25:40.655Z,18.37
2018-08-27T09:26:40.707Z,18.36
2018-08-27T09:27:41.095Z,18.35
2018-08-27T09:28:40.675Z,18.33
2018-08-27T09:29:40.860Z,18.35
2018-08-27T09:30:40.761Z,18.33
2018-08-27T09:31:41.044Z,18.36
2018-08-27T09:32:41.119Z,18.36
2018-08-27T09:33:40.652Z,18.39
2018-08-27T09:34:40.760Z,18.39
2018-08-27T09:35:40.707Z,18.4
2018-08-27T09:36:40.728Z,18.42
2018-08-27T09:37:40.844Z,18.42
2018-08-27T09:38:40.747Z,18.43
2018-08-27T09:39:40.728Z,18.4
2018-08-27T09:40:40.992Z,18.4
2018-08-27T09:41:41.637Z,18.37
2018-08-27T09:42:40.748Z,18.4
2018-08-27T09:43:41.008Z,18.42
2018-08-27T09:44:41.157Z,18.4
2018-08-27T09:45:40.742Z,18.42
2018-08-27T09:46:40.853Z,18.42
2018-08-27T09:47:40.718Z,18.43
2018-08-27T09:48:40.713Z,18.42
2018-08-27T09:49:40.692Z,18.37
2018-08-27T09:50:40.736Z,18.4
2018-08-27T09:51:40.809Z,18.42
2018-08-27T09:52:40.946Z,18.4
2018-08-27T09:53:40.989Z,18.39
2018-08-27T09:54:40.703Z,18.36
2018-08-27T09:55:40.712Z,18.36
2018-08-27T09:56:40.879Z,18.37
2018-08-27T09:57:40.695Z,18.37
2018-08-27T09:58:41.019Z,18.37
2018-08-27T09:59:40.688Z,18.36
2018-08-27T10:00:41.011Z,18.37
2018-08-27T10:01:40.691Z,18.36
2018-08-27T10:02:40.811Z,18.35
2018-08-27T10:03:40.710Z,18.36
2018-08-27T10:04:41.036Z,18.36
2018-08-27T10:05:40.679Z,18.35
2018-08-27T10:06:40.695Z,18.37
2018-08-27T10:07:40.679Z,18.42
2018-08-27T10:08:40.725Z,18.43
2018-08-27T10:09:40.742Z,18.44
2018-08-27T10:10:41.092Z,18.43
2018-08-27T10:11:40.688Z,18.44
2018-08-27T10:12:40.886Z,18.46
2018-08-27T10:13:40.840Z,18.47
2018-08-27T10:14:40.697Z,18.49
2018-08-27T10:15:40.700Z,18.52
2018-08-27T10:16:40.764Z,18.53
2018-08-27T10:17:40.708Z,18.57
2018-08-27T10:18:41.112Z,18.56
2018-08-27T10:19:40.795Z,18.59
2018-08-27T10:20:40.867Z,18.64
2018-08-27T10:21:40.950Z,18.61
2018-08-27T10:22:41.163Z,18.6
2018-08-27T10:23:40.786Z,18.57
2018-08-27T10:24:40.767Z,18.59
2018-08-27T10:25:40.732Z,18.56
2018-08-27T10:26:40.797Z,18.57
2018-08-27T10:27:40.708Z,18.57
2018-08-27T10:28:40.759Z,18.59
2018-08-27T10:29:40.942Z,18.59
2018-08-27T10:30:40.719Z,18.57
2018-08-27T10:31:40.957Z,18.57
2018-08-27T10:32:41.054Z,18.59
2018-08-27T10:33:41.138Z,18.61
2018-08-27T10:34:40.826Z,18.63
2018-08-27T10:35:40.930Z,18.64
2018-08-27T10:36:40.757Z,18.66
2018-08-27T10:37:40.779Z,18.66
2018-08-27T10:38:40.772Z,18.67
2018-08-27T10:39:40.798Z,18.68
2018-08-27T10:40:40.734Z,18.68
2018-08-27T10:41:40.812Z,18.7
2018-08-27T10:42:40.965Z,18.71
2018-08-27T10:43:40.719Z,18.75
2018-08-27T10:44:41.157Z,18.77
2018-08-27T10:45:40.822Z,18.78
2018-08-27T10:46:40.750Z,18.78
2018-08-27T10:47:41.041Z,18.82
2018-08-27T10:48:40.787Z,18.85
2018-08-27T10:49:40.864Z,18.88
2018-08-27T10:50:40.796Z,18.91
2018-08-27T10:51:41.000Z,18.94
2018-08-27T10:52:40.915Z,18.95
2018-08-27T10:53:40.767Z,18.98
2018-08-27T10:54:40.774Z,19.01
2018-08-27T10:55:41.003Z,19.03
2018-08-27T10:56:40.765Z,19.06
2018-08-27T10:57:40.819Z,19.05
2018-08-27T10:58:40.884Z,19.09
2018-08-27T10:59:40.956Z,19.09
2018-08-27T11:00:40.847Z,19.12
2018-08-27T11:01:40.776Z,19.12
2018-08-27T11:02:41.109Z,19.15
2018-08-27T11:03:40.777Z,19.17
2018-08-27T11:04:41.055Z,19.21
2018-08-27T11:05:40.812Z,19.22
2018-08-27T11:06:40.832Z,19.25
2018-08-27T11:07:40.820Z,19.29
2018-08-27T11:08:40.823Z,19.27
2018-08-27T11:09:41.076Z,19.29
2018-08-27T11:10:41.111Z,19.3
2018-08-27T11:11:41.202Z,19.3
2018-08-27T11:12:41.308Z,19.34
2018-08-27T11:13:40.976Z,19.34
2018-08-27T11:14:40.850Z,19.42
2018-08-27T11:15:40.823Z,19.42
2018-08-27T11:16:40.793Z,19.43
2018-08-27T11:17:40.823Z,19.49
2018-08-27T11:18:40.771Z,19.5
2018-08-27T11:19:41.595Z,19.5
2018-08-27T11:20:41.638Z,19.47
2018-08-27T11:21:40.881Z,19.51
2018-08-27T11:22:40.808Z,19.5
2018-08-27T11:23:40.816Z,19.5
2018-08-27T11:24:40.802Z,19.43
2018-08-27T11:25:40.831Z,19.4
2018-08-27T11:26:42.470Z,19.34
2018-08-27T11:27:40.777Z,19.34
2018-08-27T11:28:40.901Z,19.37
2018-08-27T11:29:41.024Z,19.36
2018-08-27T11:30:40.835Z,19.34
2018-08-27T11:31:40.818Z,19.37
2018-08-27T11:32:40.840Z,19.36
2018-08-27T11:33:40.808Z,19.33
2018-08-27T11:34:40.811Z,19.32
2018-08-27T11:35:41.589Z,19.22
2018-08-27T11:36:41.013Z,19.23
2018-08-27T11:37:41.493Z,19.21
2018-08-27T11:38:40.873Z,19.23
2018-08-27T11:39:41.082Z,19.27
2018-08-27T11:40:40.838Z,19.33
2018-08-27T11:41:40.831Z,19.39
2018-08-27T11:42:42.049Z,19.37
2018-08-27T11:43:40.861Z,19.37
2018-08-27T11:44:41.121Z,19.43
2018-08-27T11:45:41.009Z,19.47
2018-08-27T11:46:40.824Z,19.49
2018-08-27T11:47:41.132Z,19.54
2018-08-27T11:48:40.893Z,19.58
2018-08-27T11:49:40.844Z,19.61
2018-08-27T11:50:41.889Z,19.62
2018-08-27T11:51:40.958Z,19.56
2018-08-27T11:52:40.907Z,19.53
2018-08-27T11:53:40.945Z,19.56
2018-08-27T11:54:40.871Z,19.56
2018-08-27T11:55:41.012Z,19.54
2018-08-27T11:56:41.918Z,19.57
2018-08-27T11:57:40.891Z,19.54
2018-08-27T11:58:41.300Z,19.53
2018-08-27T11:59:40.835Z,19.53
2018-08-27T12:00:41.016Z,19.51
2018-08-27T12:01:40.858Z,19.57
2018-08-27T12:02:41.369Z,19.51
2018-08-27T12:03:41.028Z,19.56
2018-08-27T12:04:40.850Z,19.6
2018-08-27T12:05:40.855Z,19.65
2018-08-27T12:06:40.921Z,19.67
2018-08-27T12:07:41.206Z,19.74
2018-08-27T12:08:40.865Z,19.71
2018-08-27T12:09:40.855Z,19.7
2018-08-27T12:10:40.845Z,19.77
2018-08-27T12:11:40.993Z,19.74
2018-08-27T12:12:41.303Z,19.77
2018-08-27T12:13:40.994Z,19.79
2018-08-27T12:14:40.977Z,19.78
2018-08-27T12:15:41.637Z,19.82
2018-08-27T12:16:41.178Z,19.84
2018-08-27T12:17:40.882Z,19.81
2018-08-27T12:18:41.161Z,19.84
2018-08-27T12:19:40.883Z,19.91
2018-08-27T12:20:40.980Z,19.96
2018-08-27T12:21:41.106Z,19.96
2018-08-27T12:22:40.911Z,19.92
2018-08-27T12:23:41.065Z,19.98
2018-08-27T12:24:41.072Z,20.05
2018-08-27T12:25:40.906Z,20.08
2018-08-27T12:26:41.030Z,20.09
2018-08-27T12:27:41.001Z,20.13
2018-08-27T12:28:41.016Z,20.16
2018-08-27T12:29:40.911Z,20.2
2018-08-27T12:30:40.999Z,20.26
2018-08-27T12:31:40.997Z,20.3
2018-08-27T12:32:40.969Z,20.36
2018-08-27T12:33:40.909Z,20.48
2018-08-27T12:34:40.874Z,20.5
2018-08-27T12:35:40.956Z,20.5
2018-08-27T12:36:40.929Z,20.54
2018-08-27T12:37:41.390Z,20.55
2018-08-27T12:38:41.189Z,20.6
2018-08-27T12:39:40.937Z,20.61
2018-08-27T12:40:41.465Z,20.6
2018-08-27T12:41:41.094Z,20.64
2018-08-27T12:42:40.886Z,20.68
2018-08-27T12:43:41.304Z,20.68
2018-08-27T12:44:40.886Z,20.74
2018-08-27T12:45:40.950Z,20.75
2018-08-27T12:46:40.870Z,20.78
2018-08-27T12:47:40.871Z,20.81
2018-08-27T12:48:40.893Z,20.84
2018-08-27T12:49:40.864Z,20.89
2018-08-27T12:50:41.079Z,20.95
2018-08-27T12:51:40.948Z,20.98
2018-08-27T12:52:40.911Z,20.98
2018-08-27T12:53:40.971Z,21.01
2018-08-27T12:54:40.914Z,21.06